createdAt,value
2019-02-22T00:00:45.051Z,27.67
2019-02-22T00:03:12.190Z,27.23
2019-02-22T00:05:39.251Z,31.17
2019-02-22T00:08:07.069Z,26.53
2019-02-22T00:10:34.551Z,27.37
2019-02-22T00:13:01.690Z,27.57
2019-02-22T00:15:28.792Z,28.97
2019-02-22T00:17:55.931Z,27.87
2019-02-22T00:20:22.991Z,26.93
2019-02-22T00:22:50.091Z,28.13
2019-02-22T00:25:17.336Z,27.00
2019-02-22T00:27:44.512Z,27.83
2019-02-22T00:30:11.638Z,29.50
2019-02-22T00:32:39.071Z,25.93
2019-02-22T00:35:06.483Z,25.30
2019-02-22T00:37:33.705Z,27.27
2019-02-22T00:40:00.851Z,23.80
2019-02-22T00:42:28.010Z,29.33
2019-02-22T00:44:55.090Z,27.80
2019-02-22T00:47:22.275Z,25.93
2019-02-22T00:49:49.411Z,27.67
2019-02-22T00:52:16.490Z,32.80
2019-02-22T00:54:43.591Z,27.10
2019-02-22T00:57:10.750Z,31.87
2019-02-22T00:59:37.870Z,27.07
2019-02-22T01:02:04.925Z,30.80
2019-02-22T01:04:32.071Z,27.97
2019-02-22T01:06:59.270Z,29.03
2019-02-22T01:09:26.315Z,30.23
2019-02-22T01:11:53.410Z,29.90
2019-02-22T01:14:22.271Z,30.17
2019-02-22T01:16:49.451Z,30.07
2019-02-22T01:19:16.537Z,32.53
2019-02-22T01:21:43.611Z,29.27
2019-02-22T01:24:11.331Z,28.67
2019-02-22T01:26:38.451Z,31.10
2019-02-22T01:29:05.570Z,36.67
2019-02-22T01:31:32.678Z,29.27
2019-02-22T01:33:59.813Z,31.60
2019-02-22T01:36:27.070Z,29.73
2019-02-22T01:38:54.133Z,30.53
2019-02-22T01:41:21.365Z,30.40
2019-02-22T01:43:48.550Z,30.00
2019-02-22T01:46:15.711Z,32.60
2019-02-22T01:48:42.846Z,30.33
2019-02-22T01:51:10.074Z,31.00
2019-02-22T01:53:37.154Z,32.40
2019-02-22T01:56:04.471Z,32.60
2019-02-22T01:58:31.599Z,29.43
2019-02-22T02:00:58.771Z,33.13
2019-02-22T02:03:25.950Z,30.13
2019-02-22T02:05:53.130Z,31.80
2019-02-22T02:08:20.871Z,30.60
2019-02-22T02:10:54.060Z,33.10
2019-02-22T02:13:16.991Z,31.80
2019-02-22T02:15:44.071Z,29.17
2019-02-22T02:18:11.190Z,32.87
2019-02-22T02:20:38.518Z,33.67
2019-02-22T02:23:05.902Z,31.20
2019-02-22T02:25:32.990Z,33.87
2019-02-22T02:28:00.129Z,35.23
2019-02-22T02:30:27.189Z,31.37
2019-02-22T02:32:54.368Z,37.87
2019-02-22T02:35:21.547Z,37.77
2019-02-22T02:37:48.785Z,40.50
2019-02-22T02:40:15.861Z,40.07
2019-02-22T02:42:42.924Z,42.90
2019-02-22T02:45:10.005Z,42.77
2019-02-22T02:47:37.107Z,45.27
2019-02-22T02:50:06.585Z,43.97
2019-02-22T02:52:33.721Z,47.20
2019-02-22T02:55:00.849Z,49.70
2019-02-22T02:57:27.994Z,47.57
2019-02-22T02:59:55.143Z,45.70
2019-02-22T03:02:24.102Z,47.57
2019-02-22T03:04:51.269Z,46.07
2019-02-22T03:07:37.147Z,49.70
2019-02-22T03:10:06.166Z,48.13
2019-02-22T03:12:33.195Z,60.50
2019-02-22T03:15:00.366Z,56.03
2019-02-22T03:17:27.527Z,52.07
2019-02-22T03:19:54.845Z,53.53
2019-02-22T03:22:21.989Z,49.60
2019-02-22T03:24:49.031Z,52.20
2019-02-22T03:27:16.103Z,51.50
2019-02-22T03:29:43.168Z,56.00
2019-02-22T03:32:10.412Z,52.73
2019-02-22T03:34:37.628Z,54.70
2019-02-22T03:37:04.755Z,59.43
2019-02-22T03:39:31.804Z,55.07
2019-02-22T03:41:58.948Z,57.87
2019-02-22T03:44:25.970Z,57.00
2019-02-22T03:46:53.164Z,57.23
2019-02-22T03:49:20.310Z,57.30
2019-02-22T03:51:47.435Z,58.67
2019-02-22T03:54:14.506Z,59.47
2019-02-22T03:56:41.601Z,58.17
2019-02-22T03:59:08.675Z,63.20
2019-02-22T04:01:35.754Z,61.27
2019-02-22T04:04:02.845Z,58.47
2019-02-22T04:06:30.062Z,55.10
2019-02-22T04:08:57.206Z,56.80
2019-02-22T04:11:24.649Z,56.37
2019-02-22T04:13:51.745Z,56.37
2019-02-22T04:16:18.886Z,59.33
2019-02-22T04:18:46.007Z,57.70
2019-02-22T04:21:13.125Z,58.47
2019-02-22T04:23:40.195Z,56.50
2019-02-22T04:26:07.307Z,58.03
2019-02-22T04:28:34.453Z,56.10
2019-02-22T04:31:01.586Z,53.73
2019-02-22T04:33:28.646Z,55.30
2019-02-22T04:35:55.826Z,52.77
2019-02-22T04:38:22.948Z,51.90
2019-02-22T04:40:50.068Z,52.10
2019-02-22T04:43:17.200Z,52.23
2019-02-22T04:45:44.766Z,55.07
2019-02-22T04:48:11.942Z,51.80
2019-02-22T04:50:39.086Z,52.77
2019-02-22T04:53:06.627Z,53.50
2019-02-22T04:55:33.808Z,53.33
2019-02-22T04:58:00.967Z,58.63
2019-02-22T05:00:28.126Z,56.17
2019-02-22T05:02:55.369Z,58.37
2019-02-22T05:05:22.488Z,53.03
2019-02-22T05:07:49.686Z,51.13
2019-02-22T05:10:16.964Z,53.10
2019-02-22T05:12:44.185Z,52.97
2019-02-22T05:15:12.814Z,57.47
2019-02-22T05:17:40.267Z,57.03
2019-02-22T05:20:07.606Z,59.17
2019-02-22T05:22:35.054Z,55.80
2019-02-22T05:25:02.627Z,55.13
2019-02-22T05:27:29.814Z,59.87
2019-02-22T05:29:56.933Z,52.23
2019-02-22T05:32:24.113Z,55.07
2019-02-22T05:34:51.187Z,53.53
2019-02-22T05:37:18.365Z,54.73
2019-02-22T05:39:45.487Z,56.40
2019-02-22T05:42:22.493Z,57.57
2019-02-22T05:44:41.835Z,56.27
2019-02-22T05:47:08.970Z,57.83
2019-02-22T05:49:36.240Z,54.37
2019-02-22T05:52:03.347Z,56.27
2019-02-22T05:54:30.506Z,51.73
2019-02-22T05:56:57.626Z,50.93
2019-02-22T05:59:24.765Z,50.20
2019-02-22T06:01:51.927Z,55.97
2019-02-22T06:04:19.151Z,52.77
2019-02-22T06:06:46.245Z,49.37
2019-02-22T06:09:13.346Z,50.17
2019-02-22T06:11:40.466Z,56.63
2019-02-22T06:14:07.567Z,51.87
2019-02-22T06:16:36.505Z,51.60
2019-02-22T06:19:03.625Z,55.57
2019-02-22T06:21:30.750Z,55.33
2019-02-22T06:23:57.849Z,57.73
2019-02-22T06:26:24.985Z,56.43
2019-02-22T06:29:05.625Z,56.73
2019-02-22T06:31:32.748Z,56.97
2019-02-22T06:33:59.861Z,55.87
2019-02-22T06:36:26.985Z,52.80
2019-02-22T06:38:54.102Z,60.10
2019-02-22T06:41:21.475Z,60.93
2019-02-22T06:43:48.625Z,60.23
2019-02-22T06:46:15.826Z,62.03
2019-02-22T06:48:42.934Z,59.47
2019-02-22T06:51:10.048Z,62.47
2019-02-22T06:53:37.186Z,66.53
2019-02-22T06:56:04.268Z,62.93
2019-02-22T06:58:31.347Z,62.20
2019-02-22T07:00:58.446Z,59.40
2019-02-22T07:03:25.626Z,62.90
2019-02-22T07:05:52.727Z,61.60
2019-02-22T07:08:19.905Z,58.37
2019-02-22T07:10:58.165Z,62.50
2019-02-22T07:13:25.327Z,64.40
2019-02-22T07:15:52.474Z,61.60
2019-02-22T07:18:19.686Z,64.13
2019-02-22T07:20:47.086Z,61.77
2019-02-22T07:23:14.309Z,61.50
2019-02-22T07:25:41.412Z,65.03
2019-02-22T07:28:08.610Z,63.40
2019-02-22T07:30:35.830Z,63.90
2019-02-22T07:33:03.007Z,61.80
2019-02-22T07:35:30.208Z,62.67
2019-02-22T07:37:57.450Z,57.57
2019-02-22T07:40:24.567Z,59.53
2019-02-22T07:42:51.667Z,63.13
2019-02-22T07:45:18.788Z,62.63
2019-02-22T07:47:46.135Z,59.57
2019-02-22T07:50:13.255Z,59.80
2019-02-22T07:52:40.494Z,55.57
2019-02-22T07:55:09.201Z,63.87
2019-02-22T07:57:36.409Z,61.90
2019-02-22T08:00:08.912Z,58.63
2019-02-22T08:02:36.092Z,61.17
2019-02-22T08:05:03.848Z,57.20
2019-02-22T08:07:30.957Z,56.23
2019-02-22T08:09:58.109Z,55.93
2019-02-22T08:12:25.219Z,63.17
2019-02-22T08:14:52.420Z,56.23
2019-02-22T08:17:19.581Z,53.83
2019-02-22T08:19:46.840Z,53.47
2019-02-22T08:22:13.940Z,54.63
2019-02-22T08:24:41.276Z,54.83
2019-02-22T08:27:08.440Z,51.33
2019-02-22T08:29:38.172Z,53.70
2019-02-22T08:32:04.593Z,55.43
2019-02-22T08:34:31.740Z,49.03
2019-02-22T08:36:58.827Z,49.33
2019-02-22T08:39:26.028Z,57.13
2019-02-22T08:41:53.120Z,47.03
2019-02-22T08:44:20.280Z,48.10
2019-02-22T08:46:47.422Z,43.80
2019-02-22T08:49:14.579Z,45.30
2019-02-22T08:51:41.668Z,43.43
2019-02-22T08:54:08.963Z,44.87
2019-02-22T08:56:36.100Z,44.77
2019-02-22T08:59:03.239Z,43.37
2019-02-22T09:01:30.320Z,41.87
2019-02-22T09:03:57.536Z,44.70
2019-02-22T09:06:24.600Z,44.90
2019-02-22T09:08:51.759Z,42.10
2019-02-22T09:11:18.935Z,40.67
2019-02-22T09:13:46.057Z,37.87
2019-02-22T09:16:13.212Z,40.93
2019-02-22T09:18:40.312Z,35.50
2019-02-22T09:21:07.432Z,41.67
2019-02-22T09:23:34.552Z,39.60
2019-02-22T09:26:01.671Z,36.27
2019-02-22T09:28:28.770Z,34.07
2019-02-22T09:30:55.911Z,34.93
2019-02-22T09:33:22.970Z,33.83
2019-02-22T09:35:50.111Z,35.00
2019-02-22T09:38:17.173Z,31.70
2019-02-22T09:40:44.355Z,32.33
2019-02-22T09:43:11.510Z,34.27
2019-02-22T09:45:38.612Z,30.57
2019-02-22T09:48:05.751Z,30.27
2019-02-22T09:50:32.831Z,28.17
2019-02-22T09:52:59.991Z,29.43
2019-02-22T09:55:27.129Z,27.40
2019-02-22T09:57:54.231Z,30.80
2019-02-22T10:00:21.370Z,30.73
2019-02-22T10:02:48.667Z,30.70
2019-02-22T10:05:15.727Z,28.10
2019-02-22T10:07:42.909Z,26.53
2019-02-22T10:10:10.793Z,26.30
2019-02-22T10:12:37.867Z,26.90
2019-02-22T10:15:08.018Z,27.83
2019-02-22T10:17:35.088Z,27.57
2019-02-22T10:20:02.869Z,26.77
2019-02-22T10:22:30.007Z,24.47
2019-02-22T10:24:57.107Z,24.20
2019-02-22T10:27:24.170Z,24.83
2019-02-22T10:29:51.509Z,24.57
2019-02-22T10:32:18.987Z,24.33
2019-02-22T10:34:46.127Z,21.83
2019-02-22T10:37:13.266Z,26.13
2019-02-22T10:39:40.447Z,23.10
2019-02-22T10:42:07.628Z,24.23
2019-02-22T10:44:34.768Z,23.40
2019-02-22T10:47:01.829Z,22.83
2019-02-22T10:49:29.027Z,22.80
2019-02-22T10:51:56.167Z,22.90
2019-02-22T10:54:23.268Z,21.20
2019-02-22T10:56:50.428Z,20.70
2019-02-22T10:59:17.506Z,17.63
2019-02-22T11:01:44.807Z,19.50
2019-02-22T11:04:11.887Z,17.70
2019-02-22T11:06:38.972Z,16.80
2019-02-22T11:09:06.280Z,19.23
2019-02-22T11:11:33.999Z,14.50
2019-02-22T11:14:01.052Z,14.80
2019-02-22T11:16:28.172Z,14.93
2019-02-22T11:18:55.295Z,15.67
2019-02-22T11:21:22.404Z,16.83
2019-02-22T11:23:49.552Z,18.73
2019-02-22T11:26:16.684Z,14.90
2019-02-22T11:28:43.808Z,7.60
2019-02-22T11:31:10.969Z,11.57
2019-02-22T11:33:38.097Z,10.00
2019-02-22T11:36:05.218Z,9.23
2019-02-22T11:38:32.304Z,7.87
2019-02-22T11:40:59.404Z,8.43
2019-02-22T11:43:26.564Z,7.67
2019-02-22T11:45:53.664Z,10.23
2019-02-22T11:48:20.763Z,9.67
2019-02-22T11:50:47.884Z,9.03
2019-02-22T11:53:14.991Z,9.03
2019-02-22T11:55:42.085Z,9.93
2019-02-22T11:58:09.207Z,9.13
2019-02-22T12:00:36.404Z,12.17
2019-02-22T12:03:21.016Z,8.37
2019-02-22T12:05:33.004Z,8.60
2019-02-22T12:08:00.086Z,6.73
2019-02-22T12:10:27.367Z,8.10
2019-02-22T12:12:54.509Z,7.50
2019-02-22T12:15:21.548Z,6.63
2019-02-22T12:17:48.747Z,5.83
2019-02-22T12:20:15.948Z,5.70
2019-02-22T12:22:43.107Z,5.37
2019-02-22T12:25:12.026Z,8.30
2019-02-22T12:27:39.148Z,4.00
2019-02-22T12:30:14.868Z,4.20
2019-02-22T12:32:42.086Z,2.93
2019-02-22T12:35:09.628Z,2.10
2019-02-22T12:37:37.086Z,2.20
2019-02-22T12:40:07.886Z,2.43
2019-02-22T12:42:35.105Z,2.10
2019-02-22T12:45:03.620Z,2.00
2019-02-22T12:47:30.746Z,1.67
2019-02-22T12:49:57.886Z,1.97
2019-02-22T12:52:26.147Z,1.40
2019-02-22T12:54:53.271Z,1.63
2019-02-22T12:57:21.509Z,1.60
2019-02-22T12:59:48.539Z,1.80
2019-02-22T13:02:15.671Z,1.30
2019-02-22T13:04:42.831Z,2.43
2019-02-22T13:07:09.910Z,1.60
2019-02-22T13:09:37.244Z,2.30
2019-02-22T13:12:13.561Z,2.27
2019-02-22T13:14:33.549Z,1.30
2019-02-22T13:17:01.031Z,1.70
2019-02-22T13:19:28.237Z,2.00
2019-02-22T13:21:55.337Z,2.17
2019-02-22T13:24:22.531Z,3.00
2019-02-22T13:26:49.751Z,2.00
2019-02-22T13:29:16.877Z,2.07
2019-02-22T13:31:44.049Z,1.70
2019-02-22T13:34:11.480Z,4.43
2019-02-22T13:36:38.580Z,1.50
2019-02-22T13:39:06.160Z,1.73
2019-02-22T13:41:33.156Z,1.70
2019-02-22T13:44:00.243Z,2.70
2019-02-22T13:46:27.365Z,1.80
2019-02-22T13:48:54.565Z,1.40
2019-02-22T13:51:21.738Z,1.20
2019-02-22T13:53:48.866Z,2.40
2019-02-22T13:56:15.955Z,2.77
2019-02-22T13:58:43.129Z,3.27
2019-02-22T14:01:10.208Z,3.20
2019-02-22T14:03:37.490Z,3.60
2019-02-22T14:06:04.690Z,4.77
2019-02-22T14:08:32.414Z,6.00
2019-02-22T14:10:59.554Z,3.63
2019-02-22T14:13:26.615Z,5.40
2019-02-22T14:15:53.873Z,5.83
2019-02-22T14:18:20.946Z,6.43
2019-02-22T14:20:48.274Z,9.23
2019-02-22T14:23:15.307Z,5.37
2019-02-22T14:25:42.449Z,3.47
2019-02-22T14:28:11.990Z,4.20
2019-02-22T14:30:38.469Z,5.83
2019-02-22T14:33:05.850Z,4.33
2019-02-22T14:35:32.980Z,2.43
2019-02-22T14:38:00.361Z,2.63
2019-02-22T14:40:27.413Z,3.50
2019-02-22T14:42:54.552Z,2.03
2019-02-22T14:45:21.763Z,2.20
2019-02-22T14:47:48.859Z,2.13
2019-02-22T14:50:17.332Z,2.00
2019-02-22T14:52:44.386Z,1.93
2019-02-22T14:55:11.721Z,1.90
2019-02-22T14:57:38.765Z,2.20
2019-02-22T15:00:16.383Z,2.43
2019-02-22T15:02:43.594Z,2.83
2019-02-22T15:05:12.837Z,3.40
2019-02-22T15:07:40.095Z,4.37
2019-02-22T15:10:08.994Z,5.20
2019-02-22T15:12:36.035Z,6.40
2019-02-22T15:15:30.014Z,9.23
2019-02-22T15:17:58.947Z,8.97
2019-02-22T15:20:26.110Z,7.50
2019-02-22T15:22:53.187Z,9.67
2019-02-22T15:25:20.287Z,5.77
2019-02-22T15:27:47.367Z,7.00
2019-02-22T15:30:16.043Z,7.23
2019-02-22T15:32:43.255Z,10.50
2019-02-22T15:35:15.764Z,8.30
2019-02-22T15:37:43.430Z,7.77
2019-02-22T15:40:12.767Z,9.13
2019-02-22T15:42:40.700Z,10.93
2019-02-22T15:45:14.771Z,6.80
2019-02-22T15:47:41.873Z,5.30
2019-02-22T15:50:16.628Z,5.63
2019-02-22T15:52:45.070Z,5.13
2019-02-22T15:55:14.277Z,6.37
2019-02-22T15:57:41.338Z,6.53
2019-02-22T16:00:33.430Z,5.60
2019-02-22T16:03:00.629Z,5.87
2019-02-22T16:05:29.567Z,7.60
2019-02-22T16:07:57.067Z,7.60
2019-02-22T16:10:24.252Z,10.40
2019-02-22T16:12:51.479Z,8.90
2019-02-22T16:15:18.792Z,12.20
2019-02-22T16:17:45.970Z,11.77
2019-02-22T16:20:13.604Z,10.97
2019-02-22T16:22:40.646Z,11.23
2019-02-22T16:25:18.586Z,11.00
2019-02-22T16:27:36.748Z,11.83
2019-02-22T16:30:10.282Z,12.67
2019-02-22T16:32:37.382Z,10.10
2019-02-22T16:35:05.446Z,8.77
2019-02-22T16:37:32.606Z,7.07
2019-02-22T16:39:59.742Z,7.10
2019-02-22T16:42:26.841Z,7.30
2019-02-22T16:44:54.041Z,9.40
2019-02-22T16:47:21.106Z,7.63
2019-02-22T16:49:48.362Z,7.87
2019-02-22T16:52:15.528Z,8.27
2019-02-22T16:54:42.843Z,10.40
2019-02-22T16:57:10.142Z,8.13
2019-02-22T16:59:37.222Z,7.80
2019-02-22T17:02:04.292Z,12.73
2019-02-22T17:04:31.433Z,8.90
2019-02-22T17:06:58.732Z,9.40
2019-02-22T17:09:25.851Z,10.03
2019-02-22T17:11:53.004Z,13.93
2019-02-22T17:14:20.052Z,10.60
2019-02-22T17:16:47.236Z,13.80
2019-02-22T17:19:14.836Z,10.87
2019-02-22T17:21:45.724Z,10.17
2019-02-22T17:24:12.801Z,6.87
2019-02-22T17:26:39.919Z,8.63
2019-02-22T17:29:06.994Z,6.73
2019-02-22T17:31:34.059Z,6.97
2019-02-22T17:34:01.140Z,6.53
2019-02-22T17:36:28.222Z,6.60
2019-02-22T17:38:55.403Z,5.97
2019-02-22T17:41:22.541Z,6.70
2019-02-22T17:43:49.660Z,6.70
2019-02-22T17:46:16.741Z,7.77
2019-02-22T17:48:43.860Z,6.87
2019-02-22T17:51:11.000Z,6.40
2019-02-22T17:53:38.119Z,6.33
2019-02-22T17:56:05.262Z,6.73
2019-02-22T17:58:33.672Z,6.70
2019-02-22T18:01:20.989Z,7.90
2019-02-22T18:03:48.467Z,8.07
2019-02-22T18:06:15.770Z,7.00
2019-02-22T18:08:42.930Z,8.23
2019-02-22T18:11:10.086Z,7.73
2019-02-22T18:13:37.494Z,8.27
2019-02-22T18:16:04.607Z,7.70
2019-02-22T18:18:31.767Z,7.53
2019-02-22T18:20:58.890Z,7.37
2019-02-22T18:23:25.946Z,9.20
2019-02-22T18:25:53.071Z,8.13
2019-02-22T18:28:20.247Z,8.17
2019-02-22T18:30:47.367Z,7.43
2019-02-22T18:33:14.427Z,8.13
2019-02-22T18:35:41.647Z,8.00
2019-02-22T18:38:08.744Z,9.87
2019-02-22T18:40:35.867Z,7.73
2019-02-22T18:43:02.992Z,9.40
2019-02-22T18:45:30.148Z,9.40
2019-02-22T18:47:57.247Z,8.37
2019-02-22T18:50:24.346Z,8.80
2019-02-22T18:52:51.466Z,8.57
2019-02-22T18:55:18.606Z,9.70
2019-02-22T18:57:45.730Z,8.73
2019-02-22T19:00:19.047Z,8.37
2019-02-22T19:02:46.227Z,9.27
2019-02-22T19:05:13.562Z,8.27
2019-02-22T19:07:40.902Z,12.10
2019-02-22T19:10:12.637Z,9.93
2019-02-22T19:12:39.732Z,11.50
2019-02-22T19:15:12.360Z,9.37
2019-02-22T19:17:39.621Z,9.90
2019-02-22T19:20:13.405Z,8.37
2019-02-22T19:22:40.608Z,10.77
2019-02-22T19:25:08.383Z,8.90
2019-02-22T19:27:35.599Z,11.43
2019-02-22T19:30:06.379Z,10.33
2019-02-22T19:32:33.541Z,10.57
2019-02-22T19:35:00.678Z,10.40
2019-02-22T19:37:27.839Z,10.87
2019-02-22T19:39:54.919Z,10.17
2019-02-22T19:42:22.093Z,10.20
2019-02-22T19:44:49.302Z,9.47
2019-02-22T19:47:16.399Z,11.53
2019-02-22T19:49:43.699Z,9.83
2019-02-22T19:52:10.859Z,10.97
2019-02-22T19:54:38.179Z,11.40
2019-02-22T19:57:05.379Z,10.60
2019-02-22T19:59:32.478Z,11.20
2019-02-22T20:01:59.659Z,12.13
2019-02-22T20:04:26.765Z,11.40
2019-02-22T20:06:53.858Z,11.07
2019-02-22T20:09:21.279Z,12.90
2019-02-22T20:11:48.791Z,10.97
2019-02-22T20:14:16.120Z,11.43
2019-02-22T20:16:43.299Z,10.20
2019-02-22T20:19:10.398Z,14.70
2019-02-22T20:21:37.520Z,14.10
2019-02-22T20:24:04.732Z,9.80
2019-02-22T20:26:32.039Z,11.43
2019-02-22T20:28:59.199Z,11.53
2019-02-22T20:31:26.327Z,14.50
2019-02-22T20:33:53.579Z,11.03
2019-02-22T20:36:28.066Z,12.40
2019-02-22T20:38:49.721Z,9.97
2019-02-22T20:41:16.801Z,10.63
2019-02-22T20:43:43.858Z,9.97
2019-02-22T20:46:10.942Z,8.60
2019-02-22T20:48:37.999Z,8.60
2019-02-22T20:51:05.119Z,7.93
2019-02-22T20:53:32.202Z,9.03
2019-02-22T20:55:59.340Z,11.10
2019-02-22T20:58:26.439Z,8.53
2019-02-22T21:00:53.639Z,9.40
2019-02-22T21:03:20.770Z,9.10
2019-02-22T21:05:47.886Z,10.03
2019-02-22T21:08:14.920Z,8.10
2019-02-22T21:10:42.220Z,8.07
2019-02-22T21:13:09.375Z,9.27
2019-02-22T21:15:36.520Z,9.20
2019-02-22T21:18:03.619Z,8.83
2019-02-22T21:20:30.740Z,7.93
2019-02-22T21:22:57.839Z,10.57
2019-02-22T21:25:24.939Z,9.07
2019-02-22T21:27:52.419Z,9.23
2019-02-22T21:30:20.385Z,10.80
2019-02-22T21:32:47.682Z,9.67
2019-02-22T21:35:14.860Z,8.83
2019-02-22T21:37:43.204Z,9.77
2019-02-22T21:40:11.619Z,10.60
2019-02-22T21:42:38.901Z,9.40
2019-02-22T21:45:14.206Z,10.93
2019-02-22T21:47:41.363Z,8.20
2019-02-22T21:50:14.220Z,9.87
2019-02-22T21:52:41.400Z,10.53
2019-02-22T21:55:13.449Z,9.53
2019-02-22T21:57:40.564Z,10.13
2019-02-22T22:00:20.340Z,10.97
2019-02-22T22:02:47.440Z,10.30
2019-02-22T22:05:14.841Z,9.10
2019-02-22T22:07:41.940Z,9.83
2019-02-22T22:10:09.018Z,8.87
2019-02-22T22:12:36.139Z,9.90
2019-02-22T22:15:10.671Z,9.83
2019-02-22T22:17:38.159Z,8.57
2019-02-22T22:20:07.683Z,9.23
2019-02-22T22:22:34.803Z,10.50
2019-02-22T22:25:03.598Z,9.30
2019-02-22T22:27:30.799Z,9.50
2019-02-22T22:29:57.880Z,10.20
2019-02-22T22:32:25.019Z,9.57
2019-02-22T22:34:52.159Z,10.37
2019-02-22T22:37:19.301Z,9.60
2019-02-22T22:39:46.360Z,9.30
2019-02-22T22:42:13.495Z,9.00
2019-02-22T22:44:40.581Z,10.90
2019-02-22T22:47:07.655Z,9.17
2019-02-22T22:49:34.837Z,11.23
2019-02-22T22:52:01.935Z,12.50
2019-02-22T22:54:29.135Z,11.43
2019-02-22T22:56:56.256Z,9.17
2019-02-22T22:59:23.475Z,11.03
2019-02-22T23:01:51.200Z,10.80
2019-02-22T23:04:18.378Z,9.70
2019-02-22T23:06:45.436Z,10.70
2019-02-22T23:09:17.436Z,9.30
2019-02-22T23:11:44.562Z,10.70
2019-02-22T23:14:11.642Z,10.87
2019-02-22T23:16:38.817Z,8.60
2019-02-22T23:19:06.058Z,10.30
2019-02-22T23:21:33.175Z,10.77
2019-02-22T23:24:00.316Z,9.03
2019-02-22T23:26:27.396Z,11.60
2019-02-22T23:28:54.475Z,10.83
2019-02-22T23:31:21.595Z,8.70
2019-02-22T23:33:48.696Z,10.50
2019-02-22T23:36:15.776Z,9.17
2019-02-22T23:38:42.936Z,11.00
2019-02-22T23:41:10.115Z,10.13
2019-02-22T23:43:37.195Z,8.53
2019-02-22T23:46:04.296Z,8.00
2019-02-22T23:48:31.496Z,9.43
2019-02-22T23:50:58.596Z,10.63
2019-02-22T23:53:25.696Z,9.37
2019-02-22T23:55:52.803Z,9.47
2019-02-22T23:58:19.935Z,8.43
